sensor_id;sensor_type;location;lat;lon;timestamp;P1;durP1;ratioP1;P2;durP2;ratioP2
61385;SDS011;47256;18.904;-99.054;2022-10-16T00:01:41;12.73;;;7.82;;
61385;SDS011;47256;18.904;-99.054;2022-10-16T00:04:08;13.02;;;8.13;;
61385;SDS011;47256;18.904;-99.054;2022-10-16T00:06:37;11.23;;;8.73;;
61385;SDS011;47256;18.904;-99.054;2022-10-16T00:09:04;18.00;;;8.57;;
61385;SDS011;47256;18.904;-99.054;2022-10-16T00:11:33;12.93;;;7.63;;
61385;SDS011;47256;18.904;-99.054;2022-10-16T00:14:07;17.85;;;8.15;;
61385;SDS011;47256;18.904;-99.054;2022-10-16T00:16:38;20.83;;;9.27;;
61385;SDS011;47256;18.904;-99.054;2022-10-16T00:19:05;13.15;;;9.27;;
61385;SDS011;47256;18.904;-99.054;2022-10-16T00:21:34;19.13;;;8.23;;
61385;SDS011;47256;18.904;-99.054;2022-10-16T00:24:03;17.55;;;10.07;;
61385;SDS011;47256;18.904;-99.054;2022-10-16T00:26:35;28.85;;;12.27;;
61385;SDS011;47256;18.904;-99.054;2022-10-16T00:29:04;17.95;;;10.48;;
61385;SDS011;47256;18.904;-99.054;2022-10-16T00:31:32;30.48;;;11.50;;
61385;SDS011;47256;18.904;-99.054;2022-10-16T00:34:00;23.40;;;12.52;;
61385;SDS011;47256;18.904;-99.054;2022-10-16T00:36:27;20.13;;;12.52;;
61385;SDS011;47256;18.904;-99.054;2022-10-16T00:38:55;24.92;;;14.07;;
61385;SDS011;47256;18.904;-99.054;2022-10-16T00:41:25;25.95;;;11.77;;
61385;SDS011;47256;18.904;-99.054;2022-10-16T00:43:59;16.23;;;10.20;;
61385;SDS011;47256;18.904;-99.054;2022-10-16T00:46:33;21.45;;;11.57;;
61385;SDS011;47256;18.904;-99.054;2022-10-16T00:49:11;23.67;;;11.40;;
61385;SDS011;47256;18.904;-99.054;2022-10-16T00:51:41;23.00;;;13.48;;
61385;SDS011;47256;18.904;-99.054;2022-10-16T00:54:25;19.33;;;12.13;;
61385;SDS011;47256;18.904;-99.054;2022-10-16T00:56:59;37.70;;;13.85;;
61385;SDS011;47256;18.904;-99.054;2022-10-16T00:59:30;27.70;;;14.05;;
61385;SDS011;47256;18.904;-99.054;2022-10-16T01:02:07;26.13;;;13.68;;
61385;SDS011;47256;18.904;-99.054;2022-10-16T01:04:39;29.92;;;13.95;;
61385;SDS011;47256;18.904;-99.054;2022-10-16T01:10:34;33.42;;;14.90;;
61385;SDS011;47256;18.904;-99.054;2022-10-16T01:13:10;31.35;;;15.35;;
61385;SDS011;47256;18.904;-99.054;2022-10-16T01:15:59;26.55;;;14.60;;
61385;SDS011;47256;18.904;-99.054;2022-10-16T01:18:46;24.58;;;14.75;;
61385;SDS011;47256;18.904;-99.054;2022-10-16T01:21:27;20.55;;;14.88;;
61385;SDS011;47256;18.904;-99.054;2022-10-16T01:32:11;24.27;;;14.13;;
61385;SDS011;47256;18.904;-99.054;2022-10-16T01:34:53;25.42;;;14.63;;
61385;SDS011;47256;18.904;-99.054;2022-10-16T01:37:35;23.83;;;13.20;;
61385;SDS011;47256;18.904;-99.054;2022-10-16T01:40:09;21.67;;;14.02;;
61385;SDS011;47256;18.904;-99.054;2022-10-16T01:42:41;22.75;;;12.45;;
61385;SDS011;47256;18.904;-99.054;2022-10-16T01:45:13;31.92;;;14.07;;
61385;SDS011;47256;18.904;-99.054;2022-10-16T01:47:45;27.38;;;13.35;;
61385;SDS011;47256;18.904;-99.054;2022-10-16T01:50:16;21.58;;;13.05;;
61385;SDS011;47256;18.904;-99.054;2022-10-16T01:52:46;22.13;;;13.80;;
61385;SDS011;47256;18.904;-99.054;2022-10-16T01:55:26;22.63;;;13.23;;
61385;SDS011;47256;18.904;-99.054;2022-10-16T01:57:59;21.25;;;13.40;;
61385;SDS011;47256;18.904;-99.054;2022-10-16T02:00:33;18.33;;;13.02;;
61385;SDS011;47256;18.904;-99.054;2022-10-16T02:03:04;19.08;;;14.07;;
61385;SDS011;47256;18.904;-99.054;2022-10-16T02:05:34;27.70;;;12.98;;
61385;SDS011;47256;18.904;-99.054;2022-10-16T02:08:11;18.65;;;12.63;;
61385;SDS011;47256;18.904;-99.054;2022-10-16T02:10:40;16.55;;;12.20;;
61385;SDS011;47256;18.904;-99.054;2022-10-16T02:16:18;19.10;;;12.77;;
61385;SDS011;47256;18.904;-99.054;2022-10-16T02:18:45;26.63;;;12.95;;
61385;SDS011;47256;18.904;-99.054;2022-10-16T02:21:33;22.80;;;13.15;;
61385;SDS011;47256;18.904;-99.054;2022-10-16T02:26:53;24.70;;;13.57;;
61385;SDS011;47256;18.904;-99.054;2022-10-16T02:29:47;23.00;;;14.35;;
61385;SDS011;47256;18.904;-99.054;2022-10-16T02:32:20;22.83;;;12.77;;
61385;SDS011;47256;18.904;-99.054;2022-10-16T02:34:51;17.77;;;12.63;;
61385;SDS011;47256;18.904;-99.054;2022-10-16T02:37:20;19.70;;;13.20;;
61385;SDS011;47256;18.904;-99.054;2022-10-16T02:39:50;28.00;;;14.48;;
61385;SDS011;47256;18.904;-99.054;2022-10-16T02:42:18;20.13;;;14.45;;
61385;SDS011;47256;18.904;-99.054;2022-10-16T02:44:46;26.65;;;13.70;;
61385;SDS011;47256;18.904;-99.054;2022-10-16T02:47:15;19.25;;;12.73;;
61385;SDS011;47256;18.904;-99.054;2022-10-16T02:49:45;27.50;;;13.55;;
61385;SDS011;47256;18.904;-99.054;2022-10-16T02:52:13;22.08;;;12.75;;
61385;SDS011;47256;18.904;-99.054;2022-10-16T02:54:40;18.25;;;13.23;;
61385;SDS011;47256;18.904;-99.054;2022-10-16T02:57:09;18.13;;;13.13;;
61385;SDS011;47256;18.904;-99.054;2022-10-16T02:59:38;22.02;;;13.20;;
61385;SDS011;47256;18.904;-99.054;2022-10-16T03:02:07;21.42;;;13.02;;
61385;SDS011;47256;18.904;-99.054;2022-10-16T03:04:35;16.30;;;13.00;;
61385;SDS011;47256;18.904;-99.054;2022-10-16T03:07:02;20.13;;;13.50;;
61385;SDS011;47256;18.904;-99.054;2022-10-16T03:09:30;21.50;;;12.60;;
61385;SDS011;47256;18.904;-99.054;2022-10-16T03:11:58;26.77;;;13.57;;
61385;SDS011;47256;18.904;-99.054;2022-10-16T03:14:26;31.60;;;13.40;;
61385;SDS011;47256;18.904;-99.054;2022-10-16T03:16:53;21.98;;;13.20;;
61385;SDS011;47256;18.904;-99.054;2022-10-16T03:19:21;20.38;;;12.32;;
61385;SDS011;47256;18.904;-99.054;2022-10-16T03:21:49;21.65;;;13.32;;
61385;SDS011;47256;18.904;-99.054;2022-10-16T03:24:17;21.70;;;12.35;;
61385;SDS011;47256;18.904;-99.054;2022-10-16T03:26:45;22.70;;;12.63;;
61385;SDS011;47256;18.904;-99.054;2022-10-16T03:29:13;23.05;;;13.18;;
61385;SDS011;47256;18.904;-99.054;2022-10-16T03:31:41;17.77;;;13.00;;
61385;SDS011;47256;18.904;-99.054;2022-10-16T03:34:09;21.90;;;11.98;;
61385;SDS011;47256;18.904;-99.054;2022-10-16T03:36:38;19.67;;;12.50;;
61385;SDS011;47256;18.904;-99.054;2022-10-16T03:39:05;22.00;;;13.75;;
61385;SDS011;47256;18.904;-99.054;2022-10-16T03:41:36;20.02;;;12.07;;
61385;SDS011;47256;18.904;-99.054;2022-10-16T03:44:03;18.48;;;13.30;;
61385;SDS011;47256;18.904;-99.054;2022-10-16T03:46:31;16.08;;;11.45;;
61385;SDS011;47256;18.904;-99.054;2022-10-16T03:49:01;17.73;;;12.55;;
61385;SDS011;47256;18.904;-99.054;2022-10-16T03:51:28;21.20;;;13.18;;
61385;SDS011;47256;18.904;-99.054;2022-10-16T03:53:56;18.73;;;12.05;;
61385;SDS011;47256;18.904;-99.054;2022-10-16T03:56:25;26.00;;;13.98;;
61385;SDS011;47256;18.904;-99.054;2022-10-16T03:58:53;19.38;;;13.43;;
61385;SDS011;47256;18.904;-99.054;2022-10-16T04:01:22;22.75;;;13.85;;
61385;SDS011;47256;18.904;-99.054;2022-10-16T04:03:49;23.70;;;13.80;;
61385;SDS011;47256;18.904;-99.054;2022-10-16T04:06:17;24.98;;;15.90;;
61385;SDS011;47256;18.904;-99.054;2022-10-16T04:08:44;27.80;;;15.52;;
61385;SDS011;47256;18.904;-99.054;2022-10-16T04:11:12;27.83;;;16.70;;
61385;SDS011;47256;18.904;-99.054;2022-10-16T04:13:39;34.28;;;17.85;;
61385;SDS011;47256;18.904;-99.054;2022-10-16T04:16:07;32.90;;;17.80;;
61385;SDS011;47256;18.904;-99.054;2022-10-16T04:18:35;31.23;;;16.80;;
61385;SDS011;47256;18.904;-99.054;2022-10-16T04:21:03;28.63;;;15.93;;
61385;SDS011;47256;18.904;-99.054;2022-10-16T04:23:32;19.80;;;15.02;;
61385;SDS011;47256;18.904;-99.054;2022-10-16T04:26:00;31.27;;;16.80;;
61385;SDS011;47256;18.904;-99.054;2022-10-16T04:28:28;35.50;;;17.63;;
61385;SDS011;47256;18.904;-99.054;2022-10-16T04:30:55;24.10;;;16.58;;
61385;SDS011;47256;18.904;-99.054;2022-10-16T04:33:22;22.13;;;15.88;;
61385;SDS011;47256;18.904;-99.054;2022-10-16T04:35:56;23.13;;;15.35;;
61385;SDS011;47256;18.904;-99.054;2022-10-16T04:38:25;26.75;;;15.90;;
61385;SDS011;47256;18.904;-99.054;2022-10-16T04:40:52;19.30;;;15.02;;
61385;SDS011;47256;18.904;-99.054;2022-10-16T04:43:23;20.10;;;14.68;;
61385;SDS011;47256;18.904;-99.054;2022-10-16T04:45:50;29.63;;;15.50;;
61385;SDS011;47256;18.904;-99.054;2022-10-16T04:48:18;26.65;;;15.18;;
61385;SDS011;47256;18.904;-99.054;2022-10-16T04:50:46;22.02;;;15.77;;
61385;SDS011;47256;18.904;-99.054;2022-10-16T04:53:13;25.52;;;14.90;;
61385;SDS011;47256;18.904;-99.054;2022-10-16T04:55:41;24.35;;;14.30;;
61385;SDS011;47256;18.904;-99.054;2022-10-16T04:58:09;20.55;;;13.88;;
61385;SDS011;47256;18.904;-99.054;2022-10-16T05:00:39;18.15;;;14.00;;
61385;SDS011;47256;18.904;-99.054;2022-10-16T05:03:07;29.58;;;13.85;;
61385;SDS011;47256;18.904;-99.054;2022-10-16T05:05:42;26.77;;;13.90;;
61385;SDS011;47256;18.904;-99.054;2022-10-16T05:08:12;21.20;;;13.43;;
61385;SDS011;47256;18.904;-99.054;2022-10-16T05:10:41;18.73;;;12.60;;
61385;SDS011;47256;18.904;-99.054;2022-10-16T05:13:10;22.92;;;13.15;;
61385;SDS011;47256;18.904;-99.054;2022-10-16T05:15:39;20.30;;;13.80;;
61385;SDS011;47256;18.904;-99.054;2022-10-16T05:18:06;18.80;;;12.90;;
61385;SDS011;47256;18.904;-99.054;2022-10-16T05:20:34;17.10;;;13.00;;
61385;SDS011;47256;18.904;-99.054;2022-10-16T05:23:02;15.57;;;12.77;;
61385;SDS011;47256;18.904;-99.054;2022-10-16T05:25:30;22.00;;;13.30;;
61385;SDS011;47256;18.904;-99.054;2022-10-16T05:27:58;17.15;;;12.35;;
61385;SDS011;47256;18.904;-99.054;2022-10-16T05:30:25;27.98;;;13.15;;
61385;SDS011;47256;18.904;-99.054;2022-10-16T05:32:53;19.55;;;12.65;;
61385;SDS011;47256;18.904;-99.054;2022-10-16T05:35:22;22.40;;;14.30;;
61385;SDS011;47256;18.904;-99.054;2022-10-16T05:37:49;22.20;;;12.65;;
61385;SDS011;47256;18.904;-99.054;2022-10-16T05:40:17;21.60;;;13.02;;
61385;SDS011;47256;18.904;-99.054;2022-10-16T05:42:44;24.00;;;13.05;;
61385;SDS011;47256;18.904;-99.054;2022-10-16T05:45:11;19.80;;;12.75;;
61385;SDS011;47256;18.904;-99.054;2022-10-16T05:47:40;18.30;;;12.88;;
61385;SDS011;47256;18.904;-99.054;2022-10-16T05:50:07;16.33;;;12.02;;
61385;SDS011;47256;18.904;-99.054;2022-10-16T05:52:36;27.02;;;12.52;;
61385;SDS011;47256;18.904;-99.054;2022-10-16T05:55:03;16.67;;;12.23;;
61385;SDS011;47256;18.904;-99.054;2022-10-16T05:57:34;20.10;;;12.20;;
61385;SDS011;47256;18.904;-99.054;2022-10-16T06:00:01;18.55;;;13.65;;
61385;SDS011;47256;18.904;-99.054;2022-10-16T06:02:39;17.50;;;12.27;;
61385;SDS011;47256;18.904;-99.054;2022-10-16T06:05:08;25.85;;;12.15;;
61385;SDS011;47256;18.904;-99.054;2022-10-16T06:07:35;19.58;;;11.55;;
61385;SDS011;47256;18.904;-99.054;2022-10-16T06:10:04;19.50;;;13.25;;
61385;SDS011;47256;18.904;-99.054;2022-10-16T06:12:32;22.85;;;14.18;;
61385;SDS011;47256;18.904;-99.054;2022-10-16T06:15:00;22.38;;;13.38;;
61385;SDS011;47256;18.904;-99.054;2022-10-16T06:17:28;19.70;;;12.20;;
61385;SDS011;47256;18.904;-99.054;2022-10-16T06:19:55;19.90;;;12.75;;
61385;SDS011;47256;18.904;-99.054;2022-10-16T06:22:22;22.35;;;13.20;;
61385;SDS011;47256;18.904;-99.054;2022-10-16T06:24:49;23.38;;;12.20;;
61385;SDS011;47256;18.904;-99.054;2022-10-16T06:27:16;21.98;;;13.23;;
61385;SDS011;47256;18.904;-99.054;2022-10-16T06:29:43;18.25;;;13.02;;
61385;SDS011;47256;18.904;-99.054;2022-10-16T06:32:11;20.20;;;13.30;;
61385;SDS011;47256;18.904;-99.054;2022-10-16T06:34:40;29.05;;;13.80;;
61385;SDS011;47256;18.904;-99.054;2022-10-16T06:37:07;26.52;;;13.18;;
61385;SDS011;47256;18.904;-99.054;2022-10-16T06:39:35;22.92;;;13.23;;
61385;SDS011;47256;18.904;-99.054;2022-10-16T06:42:01;20.90;;;13.80;;
61385;SDS011;47256;18.904;-99.054;2022-10-16T06:44:36;21.02;;;13.68;;
61385;SDS011;47256;18.904;-99.054;2022-10-16T06:47:03;19.58;;;13.57;;
61385;SDS011;47256;18.904;-99.054;2022-10-16T06:49:30;19.02;;;14.32;;
61385;SDS011;47256;18.904;-99.054;2022-10-16T06:51:58;18.95;;;13.02;;
61385;SDS011;47256;18.904;-99.054;2022-10-16T06:54:25;25.55;;;13.88;;
61385;SDS011;47256;18.904;-99.054;2022-10-16T06:56:53;26.02;;;13.63;;
61385;SDS011;47256;18.904;-99.054;2022-10-16T06:59:21;26.25;;;14.07;;
61385;SDS011;47256;18.904;-99.054;2022-10-16T07:01:49;27.42;;;13.45;;
61385;SDS011;47256;18.904;-99.054;2022-10-16T07:04:17;19.25;;;13.07;;
61385;SDS011;47256;18.904;-99.054;2022-10-16T07:06:44;16.77;;;13.27;;
61385;SDS011;47256;18.904;-99.054;2022-10-16T07:09:11;22.13;;;12.93;;
61385;SDS011;47256;18.904;-99.054;2022-10-16T07:11:39;24.08;;;14.40;;
61385;SDS011;47256;18.904;-99.054;2022-10-16T07:14:16;19.00;;;13.70;;
61385;SDS011;47256;18.904;-99.054;2022-10-16T07:16:46;21.02;;;13.52;;
61385;SDS011;47256;18.904;-99.054;2022-10-16T07:19:15;20.48;;;14.40;;
61385;SDS011;47256;18.904;-99.054;2022-10-16T07:21:43;17.55;;;13.63;;
61385;SDS011;47256;18.904;-99.054;2022-10-16T07:24:15;23.00;;;14.23;;
61385;SDS011;47256;18.904;-99.054;2022-10-16T07:26:44;27.65;;;14.55;;
61385;SDS011;47256;18.904;-99.054;2022-10-16T07:29:12;19.80;;;13.35;;
61385;SDS011;47256;18.904;-99.054;2022-10-16T07:31:43;22.17;;;15.18;;
61385;SDS011;47256;18.904;-99.054;2022-10-16T07:34:11;21.50;;;13.10;;
61385;SDS011;47256;18.904;-99.054;2022-10-16T07:36:41;19.52;;;13.65;;
61385;SDS011;47256;18.904;-99.054;2022-10-16T07:39:08;23.42;;;13.90;;
61385;SDS011;47256;18.904;-99.054;2022-10-16T07:41:35;20.23;;;14.88;;
61385;SDS011;47256;18.904;-99.054;2022-10-16T07:44:03;22.27;;;15.20;;
61385;SDS011;47256;18.904;-99.054;2022-10-16T07:46:31;17.55;;;14.07;;
61385;SDS011;47256;18.904;-99.054;2022-10-16T07:48:59;28.15;;;15.32;;
61385;SDS011;47256;18.904;-99.054;2022-10-16T07:51:28;20.88;;;14.65;;
61385;SDS011;47256;18.904;-99.054;2022-10-16T07:53:55;27.33;;;15.80;;
61385;SDS011;47256;18.904;-99.054;2022-10-16T07:56:24;20.83;;;14.60;;
61385;SDS011;47256;18.904;-99.054;2022-10-16T07:58:51;21.92;;;15.35;;
61385;SDS011;47256;18.904;-99.054;2022-10-16T08:01:22;20.50;;;14.02;;
61385;SDS011;47256;18.904;-99.054;2022-10-16T08:03:49;22.15;;;13.80;;
61385;SDS011;47256;18.904;-99.054;2022-10-16T08:06:20;23.20;;;13.07;;
61385;SDS011;47256;18.904;-99.054;2022-10-16T08:08:47;17.50;;;12.60;;
61385;SDS011;47256;18.904;-99.054;2022-10-16T08:11:15;17.13;;;12.10;;
61385;SDS011;47256;18.904;-99.054;2022-10-16T08:13:43;19.08;;;13.32;;
61385;SDS011;47256;18.904;-99.054;2022-10-16T08:16:12;19.40;;;12.45;;
61385;SDS011;47256;18.904;-99.054;2022-10-16T08:18:39;17.98;;;11.98;;
61385;SDS011;47256;18.904;-99.054;2022-10-16T08:21:08;20.75;;;13.27;;
61385;SDS011;47256;18.904;-99.054;2022-10-16T08:23:42;14.65;;;11.48;;
61385;SDS011;47256;18.904;-99.054;2022-10-16T08:26:10;18.80;;;12.98;;
61385;SDS011;47256;18.904;-99.054;2022-10-16T08:28:40;16.20;;;11.93;;
61385;SDS011;47256;18.904;-99.054;2022-10-16T08:31:09;21.30;;;12.27;;
61385;SDS011;47256;18.904;-99.054;2022-10-16T08:33:37;21.90;;;12.40;;
61385;SDS011;47256;18.904;-99.054;2022-10-16T08:36:05;15.05;;;12.07;;
61385;SDS011;47256;18.904;-99.054;2022-10-16T08:38:33;16.92;;;12.35;;
61385;SDS011;47256;18.904;-99.054;2022-10-16T08:46:37;18.38;;;12.55;;
61385;SDS011;47256;18.904;-99.054;2022-10-16T08:49:17;19.45;;;12.63;;
61385;SDS011;47256;18.904;-99.054;2022-10-16T08:51:47;14.43;;;12.35;;
61385;SDS011;47256;18.904;-99.054;2022-10-16T08:56:54;19.60;;;13.25;;
61385;SDS011;47256;18.904;-99.054;2022-10-16T08:59:33;13.68;;;11.43;;
61385;SDS011;47256;18.904;-99.054;2022-10-16T09:02:00;23.15;;;12.80;;
61385;SDS011;47256;18.904;-99.054;2022-10-16T09:10:26;17.05;;;11.30;;
61385;SDS011;47256;18.904;-99.054;2022-10-16T09:13:17;18.92;;;12.05;;
61385;SDS011;47256;18.904;-99.054;2022-10-16T09:19:05;23.98;;;12.57;;
61385;SDS011;47256;18.904;-99.054;2022-10-16T09:21:45;18.38;;;11.70;;
61385;SDS011;47256;18.904;-99.054;2022-10-16T09:24:15;18.00;;;12.30;;
61385;SDS011;47256;18.904;-99.054;2022-10-16T09:26:45;21.38;;;12.10;;
61385;SDS011;47256;18.904;-99.054;2022-10-16T09:29:17;20.17;;;13.23;;
61385;SDS011;47256;18.904;-99.054;2022-10-16T09:31:47;18.83;;;11.60;;
61385;SDS011;47256;18.904;-99.054;2022-10-16T09:34:48;23.38;;;13.27;;
61385;SDS011;47256;18.904;-99.054;2022-10-16T09:37:18;21.92;;;11.85;;
61385;SDS011;47256;18.904;-99.054;2022-10-16T09:39:52;17.63;;;12.60;;
61385;SDS011;47256;18.904;-99.054;2022-10-16T09:42:54;18.88;;;12.00;;
61385;SDS011;47256;18.904;-99.054;2022-10-16T09:45:20;18.83;;;12.25;;
61385;SDS011;47256;18.904;-99.054;2022-10-16T09:47:52;15.27;;;12.35;;
61385;SDS011;47256;18.904;-99.054;2022-10-16T09:50:27;21.77;;;13.10;;
61385;SDS011;47256;18.904;-99.054;2022-10-16T09:53:11;17.73;;;11.48;;
61385;SDS011;47256;18.904;-99.054;2022-10-16T09:55:52;18.27;;;12.90;;
61385;SDS011;47256;18.904;-99.054;2022-10-16T09:58:23;19.80;;;13.38;;
61385;SDS011;47256;18.904;-99.054;2022-10-16T10:00:52;18.50;;;12.35;;
61385;SDS011;47256;18.904;-99.054;2022-10-16T10:03:40;22.33;;;12.50;;
61385;SDS011;47256;18.904;-99.054;2022-10-16T10:06:30;24.33;;;12.35;;
61385;SDS011;47256;18.904;-99.054;2022-10-16T10:09:05;23.98;;;12.65;;
61385;SDS011;47256;18.904;-99.054;2022-10-16T10:11:53;22.27;;;12.27;;
61385;SDS011;47256;18.904;-99.054;2022-10-16T10:19:39;20.85;;;11.75;;
61385;SDS011;47256;18.904;-99.054;2022-10-16T10:24:54;17.02;;;11.43;;
61385;SDS011;47256;18.904;-99.054;2022-10-16T10:27:32;22.15;;;11.80;;
61385;SDS011;47256;18.904;-99.054;2022-10-16T10:32:56;17.53;;;12.13;;
61385;SDS011;47256;18.904;-99.054;2022-10-16T10:35:42;22.02;;;11.18;;
61385;SDS011;47256;18.904;-99.054;2022-10-16T10:38:29;19.92;;;11.93;;
61385;SDS011;47256;18.904;-99.054;2022-10-16T10:41:34;16.58;;;11.38;;
61385;SDS011;47256;18.904;-99.054;2022-10-16T10:47:28;15.55;;;9.82;;
61385;SDS011;47256;18.904;-99.054;2022-10-16T10:50:07;15.68;;;10.95;;
61385;SDS011;47256;18.904;-99.054;2022-10-16T10:52:56;17.75;;;10.65;;
61385;SDS011;47256;18.904;-99.054;2022-10-16T11:01:01;20.67;;;12.05;;
61385;SDS011;47256;18.904;-99.054;2022-10-16T11:06:44;18.83;;;11.00;;
61385;SDS011;47256;18.904;-99.054;2022-10-16T11:09:30;24.00;;;11.15;;
61385;SDS011;47256;18.904;-99.054;2022-10-16T11:14:42;13.98;;;10.23;;
61385;SDS011;47256;18.904;-99.054;2022-10-16T11:17:31;18.45;;;11.43;;
61385;SDS011;47256;18.904;-99.054;2022-10-16T11:23:27;16.80;;;11.07;;
61385;SDS011;47256;18.904;-99.054;2022-10-16T11:26:23;16.10;;;10.15;;
61385;SDS011;47256;18.904;-99.054;2022-10-16T11:28:56;21.13;;;11.30;;
61385;SDS011;47256;18.904;-99.054;2022-10-16T11:34:12;16.52;;;10.75;;
61385;SDS011;47256;18.904;-99.054;2022-10-16T11:36:48;16.45;;;10.40;;
61385;SDS011;47256;18.904;-99.054;2022-10-16T11:39:29;26.52;;;11.23;;
61385;SDS011;47256;18.904;-99.054;2022-10-16T11:42:02;21.73;;;11.35;;
61385;SDS011;47256;18.904;-99.054;2022-10-16T11:55:54;17.02;;;10.93;;
61385;SDS011;47256;18.904;-99.054;2022-10-16T11:58:39;16.27;;;11.13;;
61385;SDS011;47256;18.904;-99.054;2022-10-16T12:01:27;17.05;;;11.23;;
61385;SDS011;47256;18.904;-99.054;2022-10-16T12:06:49;17.33;;;10.55;;
61385;SDS011;47256;18.904;-99.054;2022-10-16T12:11:51;26.70;;;12.35;;
61385;SDS011;47256;18.904;-99.054;2022-10-16T12:14:33;19.10;;;11.27;;
61385;SDS011;47256;18.904;-99.054;2022-10-16T12:17:26;20.98;;;10.98;;
61385;SDS011;47256;18.904;-99.054;2022-10-16T12:22:52;14.90;;;10.25;;
61385;SDS011;47256;18.904;-99.054;2022-10-16T12:25:28;22.35;;;11.45;;
61385;SDS011;47256;18.904;-99.054;2022-10-16T12:30:43;21.48;;;10.75;;
61385;SDS011;47256;18.904;-99.054;2022-10-16T12:33:29;18.65;;;11.90;;
61385;SDS011;47256;18.904;-99.054;2022-10-16T12:35:59;17.53;;;10.70;;
61385;SDS011;47256;18.904;-99.054;2022-10-16T12:38:35;18.45;;;9.80;;
61385;SDS011;47256;18.904;-99.054;2022-10-16T12:43:58;19.15;;;10.70;;
61385;SDS011;47256;18.904;-99.054;2022-10-16T12:49:20;15.57;;;10.75;;
61385;SDS011;47256;18.904;-99.054;2022-10-16T12:51:55;18.33;;;10.48;;
61385;SDS011;47256;18.904;-99.054;2022-10-16T12:54:27;25.85;;;11.35;;
61385;SDS011;47256;18.904;-99.054;2022-10-16T12:57:12;14.45;;;10.18;;
61385;SDS011;47256;18.904;-99.054;2022-10-16T13:08:24;19.50;;;11.32;;
61385;SDS011;47256;18.904;-99.054;2022-10-16T13:17:09;16.15;;;11.25;;
61385;SDS011;47256;18.904;-99.054;2022-10-16T13:20:01;26.25;;;11.48;;
61385;SDS011;47256;18.904;-99.054;2022-10-16T13:28:12;22.80;;;10.68;;
61385;SDS011;47256;18.904;-99.054;2022-10-16T13:30:59;25.70;;;10.57;;
61385;SDS011;47256;18.904;-99.054;2022-10-16T13:33:33;25.17;;;11.70;;
61385;SDS011;47256;18.904;-99.054;2022-10-16T13:36:05;17.48;;;11.90;;
61385;SDS011;47256;18.904;-99.054;2022-10-16T13:38:34;26.80;;;11.00;;
61385;SDS011;47256;18.904;-99.054;2022-10-16T13:41:12;23.42;;;13.00;;
61385;SDS011;47256;18.904;-99.054;2022-10-16T13:43:50;22.30;;;13.52;;
61385;SDS011;47256;18.904;-99.054;2022-10-16T13:46:25;28.63;;;15.82;;
61385;SDS011;47256;18.904;-99.054;2022-10-16T13:48:59;33.40;;;16.92;;
61385;SDS011;47256;18.904;-99.054;2022-10-16T13:51:28;32.60;;;16.33;;
61385;SDS011;47256;18.904;-99.054;2022-10-16T13:53:56;42.22;;;18.85;;
61385;SDS011;47256;18.904;-99.054;2022-10-16T13:56:25;45.58;;;19.75;;
61385;SDS011;47256;18.904;-99.054;2022-10-16T13:59:04;30.05;;;17.85;;
61385;SDS011;47256;18.904;-99.054;2022-10-16T14:01:33;32.33;;;14.18;;
61385;SDS011;47256;18.904;-99.054;2022-10-16T14:04:12;25.08;;;14.27;;
61385;SDS011;47256;18.904;-99.054;2022-10-16T14:06:41;28.98;;;13.93;;
61385;SDS011;47256;18.904;-99.054;2022-10-16T14:09:20;27.35;;;13.70;;
61385;SDS011;47256;18.904;-99.054;2022-10-16T14:11:57;26.33;;;13.98;;
61385;SDS011;47256;18.904;-99.054;2022-10-16T14:14:34;22.05;;;12.57;;
61385;SDS011;47256;18.904;-99.054;2022-10-16T14:17:13;29.17;;;14.63;;
61385;SDS011;47256;18.904;-99.054;2022-10-16T14:19:54;29.67;;;15.52;;
61385;SDS011;47256;18.904;-99.054;2022-10-16T14:22:34;25.90;;;14.27;;
61385;SDS011;47256;18.904;-99.054;2022-10-16T14:27:57;23.63;;;13.50;;
61385;SDS011;47256;18.904;-99.054;2022-10-16T14:30:29;23.60;;;14.00;;
61385;SDS011;47256;18.904;-99.054;2022-10-16T14:33:21;27.75;;;14.05;;
61385;SDS011;47256;18.904;-99.054;2022-10-16T14:36:04;20.05;;;13.02;;
61385;SDS011;47256;18.904;-99.054;2022-10-16T14:38:43;19.65;;;11.70;;
61385;SDS011;47256;18.904;-99.054;2022-10-16T14:41:21;19.10;;;11.40;;
61385;SDS011;47256;18.904;-99.054;2022-10-16T14:43:55;19.80;;;12.35;;
61385;SDS011;47256;18.904;-99.054;2022-10-16T14:46:30;16.80;;;12.73;;
61385;SDS011;47256;18.904;-99.054;2022-10-16T14:49:21;15.88;;;11.43;;
61385;SDS011;47256;18.904;-99.054;2022-10-16T14:51:51;26.88;;;11.07;;
61385;SDS011;47256;18.904;-99.054;2022-10-16T14:54:18;16.17;;;10.48;;
61385;SDS011;47256;18.904;-99.054;2022-10-16T14:57:05;17.25;;;11.02;;
61385;SDS011;47256;18.904;-99.054;2022-10-16T14:59:53;17.95;;;10.40;;
61385;SDS011;47256;18.904;-99.054;2022-10-16T15:05:15;13.85;;;10.65;;
61385;SDS011;47256;18.904;-99.054;2022-10-16T15:07:46;14.18;;;10.48;;
61385;SDS011;47256;18.904;-99.054;2022-10-16T15:10:14;17.83;;;10.68;;
61385;SDS011;47256;18.904;-99.054;2022-10-16T15:12:44;19.48;;;10.65;;
61385;SDS011;47256;18.904;-99.054;2022-10-16T15:17:50;25.27;;;12.85;;
61385;SDS011;47256;18.904;-99.054;2022-10-16T15:20:27;20.33;;;10.75;;
61385;SDS011;47256;18.904;-99.054;2022-10-16T15:23:05;22.88;;;11.38;;
61385;SDS011;47256;18.904;-99.054;2022-10-16T15:25:43;33.33;;;12.88;;
61385;SDS011;47256;18.904;-99.054;2022-10-16T15:28:17;24.63;;;12.35;;
61385;SDS011;47256;18.904;-99.054;2022-10-16T15:30:45;22.17;;;11.25;;
61385;SDS011;47256;18.904;-99.054;2022-10-16T15:33:16;20.88;;;10.23;;
61385;SDS011;47256;18.904;-99.054;2022-10-16T15:35:51;14.85;;;9.50;;
61385;SDS011;47256;18.904;-99.054;2022-10-16T15:38:20;13.38;;;8.95;;
61385;SDS011;47256;18.904;-99.054;2022-10-16T15:40:49;18.58;;;10.15;;
61385;SDS011;47256;18.904;-99.054;2022-10-16T15:43:17;18.10;;;9.30;;
61385;SDS011;47256;18.904;-99.054;2022-10-16T15:45:59;16.42;;;9.02;;
61385;SDS011;47256;18.904;-99.054;2022-10-16T15:48:30;16.58;;;9.93;;
61385;SDS011;47256;18.904;-99.054;2022-10-16T15:50:59;14.13;;;10.00;;
61385;SDS011;47256;18.904;-99.054;2022-10-16T15:53:26;24.20;;;10.50;;
61385;SDS011;47256;18.904;-99.054;2022-10-16T15:55:54;17.67;;;8.90;;
61385;SDS011;47256;18.904;-99.054;2022-10-16T15:58:22;16.35;;;8.13;;
61385;SDS011;47256;18.904;-99.054;2022-10-16T16:00:56;10.05;;;7.47;;
61385;SDS011;47256;18.904;-99.054;2022-10-16T16:03:25;14.73;;;8.35;;
61385;SDS011;47256;18.904;-99.054;2022-10-16T16:05:52;16.30;;;9.07;;
61385;SDS011;47256;18.904;-99.054;2022-10-16T16:08:21;16.90;;;10.05;;
61385;SDS011;47256;18.904;-99.054;2022-10-16T16:10:58;15.88;;;10.32;;
61385;SDS011;47256;18.904;-99.054;2022-10-16T16:13:31;15.68;;;9.45;;
61385;SDS011;47256;18.904;-99.054;2022-10-16T16:15:59;12.90;;;7.85;;
61385;SDS011;47256;18.904;-99.054;2022-10-16T16:18:26;11.98;;;8.07;;
61385;SDS011;47256;18.904;-99.054;2022-10-16T16:20:55;15.77;;;8.05;;
61385;SDS011;47256;18.904;-99.054;2022-10-16T16:23:25;10.60;;;7.55;;
61385;SDS011;47256;18.904;-99.054;2022-10-16T16:26:09;15.48;;;7.75;;
61385;SDS011;47256;18.904;-99.054;2022-10-16T16:31:08;10.38;;;8.07;;
61385;SDS011;47256;18.904;-99.054;2022-10-16T16:33:37;13.48;;;8.70;;